sensor_id;sensor_type;location;lat;lon;timestamp;P1;durP1;ratioP1;P2;durP2;ratioP2
2824;SDS011;1420;51.324;12.344;2023-02-27T00:01:49;737.58;;;695.32;;
2824;SDS011;1420;51.324;12.344;2023-02-27T00:04:16;751.80;;;708.38;;
2824;SDS011;1420;51.324;12.344;2023-02-27T00:06:43;740.43;;;698.45;;
2824;SDS011;1420;51.324;12.344;2023-02-27T00:09:10;745.85;;;703.58;;
2824;SDS011;1420;51.324;12.344;2023-02-27T00:11:38;739.35;;;697.68;;
2824;SDS011;1420;51.324;12.344;2023-02-27T00:14:05;729.35;;;688.07;;
2824;SDS011;1420;51.324;12.344;2023-02-27T00:16:32;736.37;;;694.57;;
2824;SDS011;1420;51.324;12.344;2023-02-27T00:18:59;743.30;;;700.23;;
2824;SDS011;1420;51.324;12.344;2023-02-27T00:21:26;743.52;;;701.77;;
2824;SDS011;1420;51.324;12.344;2023-02-27T00:23:54;722.70;;;681.82;;
2824;SDS011;1420;51.324;12.344;2023-02-27T00:26:21;725.57;;;685.07;;
2824;SDS011;1420;51.324;12.344;2023-02-27T00:28:49;677.88;;;639.90;;
2824;SDS011;1420;51.324;12.344;2023-02-27T00:31:16;711.48;;;671.53;;
2824;SDS011;1420;51.324;12.344;2023-02-27T00:33:43;726.03;;;684.82;;
2824;SDS011;1420;51.324;12.344;2023-02-27T00:36:11;754.20;;;711.07;;
2824;SDS011;1420;51.324;12.344;2023-02-27T00:38:38;722.30;;;681.88;;
2824;SDS011;1420;51.324;12.344;2023-02-27T00:41:06;726.70;;;685.87;;
2824;SDS011;1420;51.324;12.344;2023-02-27T00:43:34;729.30;;;687.35;;
2824;SDS011;1420;51.324;12.344;2023-02-27T00:46:01;731.05;;;689.82;;
2824;SDS011;1420;51.324;12.344;2023-02-27T00:48:28;690.03;;;651.67;;
2824;SDS011;1420;51.324;12.344;2023-02-27T00:50:56;733.30;;;692.10;;
2824;SDS011;1420;51.324;12.344;2023-02-27T00:53:23;700.93;;;661.73;;
2824;SDS011;1420;51.324;12.344;2023-02-27T00:55:51;751.55;;;708.23;;
2824;SDS011;1420;51.324;12.344;2023-02-27T00:58:18;735.53;;;693.25;;
2824;SDS011;1420;51.324;12.344;2023-02-27T01:00:46;728.25;;;686.13;;
2824;SDS011;1420;51.324;12.344;2023-02-27T01:03:13;744.80;;;702.38;;
2824;SDS011;1420;51.324;12.344;2023-02-27T01:05:40;734.68;;;692.93;;
2824;SDS011;1420;51.324;12.344;2023-02-27T01:08:07;743.92;;;700.80;;
2824;SDS011;1420;51.324;12.344;2023-02-27T01:10:35;729.05;;;688.42;;
2824;SDS011;1420;51.324;12.344;2023-02-27T01:13:03;704.97;;;665.78;;
2824;SDS011;1420;51.324;12.344;2023-02-27T01:15:30;765.95;;;721.77;;
2824;SDS011;1420;51.324;12.344;2023-02-27T01:17:57;751.45;;;708.65;;
2824;SDS011;1420;51.324;12.344;2023-02-27T01:20:25;723.78;;;681.33;;
2824;SDS011;1420;51.324;12.344;2023-02-27T01:22:52;738.82;;;696.67;;
2824;SDS011;1420;51.324;12.344;2023-02-27T01:25:19;679.98;;;641.18;;
2824;SDS011;1420;51.324;12.344;2023-02-27T01:27:47;741.30;;;698.83;;
2824;SDS011;1420;51.324;12.344;2023-02-27T01:30:15;745.90;;;703.08;;
2824;SDS011;1420;51.324;12.344;2023-02-27T01:32:43;702.02;;;660.72;;
2824;SDS011;1420;51.324;12.344;2023-02-27T01:35:10;745.32;;;702.12;;
2824;SDS011;1420;51.324;12.344;2023-02-27T01:37:37;744.58;;;700.60;;
2824;SDS011;1420;51.324;12.344;2023-02-27T01:40:05;727.98;;;686.03;;
2824;SDS011;1420;51.324;12.344;2023-02-27T01:42:32;728.73;;;687.90;;
2824;SDS011;1420;51.324;12.344;2023-02-27T01:48:03;691.57;;;653.13;;
2824;SDS011;1420;51.324;12.344;2023-02-27T01:50:31;649.42;;;613.67;;
2824;SDS011;1420;51.324;12.344;2023-02-27T01:52:58;682.67;;;644.93;;
2824;SDS011;1420;51.324;12.344;2023-02-27T01:55:26;578.12;;;546.30;;
2824;SDS011;1420;51.324;12.344;2023-02-27T01:57:52;698.95;;;659.38;;
2824;SDS011;1420;51.324;12.344;2023-02-27T02:00:20;588.72;;;556.58;;
2824;SDS011;1420;51.324;12.344;2023-02-27T02:02:51;616.43;;;582.57;;
2824;SDS011;1420;51.324;12.344;2023-02-27T02:05:31;641.43;;;606.23;;
2824;SDS011;1420;51.324;12.344;2023-02-27T02:07:58;563.08;;;532.92;;
2824;SDS011;1420;51.324;12.344;2023-02-27T02:10:26;583.65;;;552.38;;
2824;SDS011;1420;51.324;12.344;2023-02-27T02:12:54;549.02;;;519.62;;
2824;SDS011;1420;51.324;12.344;2023-02-27T02:15:22;549.97;;;520.78;;
2824;SDS011;1420;51.324;12.344;2023-02-27T02:17:56;538.40;;;510.07;;
2824;SDS011;1420;51.324;12.344;2023-02-27T02:20:27;571.80;;;541.57;;
2824;SDS011;1420;51.324;12.344;2023-02-27T02:23:14;543.03;;;514.42;;
2824;SDS011;1420;51.324;12.344;2023-02-27T02:31:16;585.37;;;553.42;;
2824;SDS011;1420;51.324;12.344;2023-02-27T02:34:05;581.03;;;550.25;;
2824;SDS011;1420;51.324;12.344;2023-02-27T02:36:53;609.67;;;576.93;;
2824;SDS011;1420;51.324;12.344;2023-02-27T02:39:38;588.47;;;557.38;;
2824;SDS011;1420;51.324;12.344;2023-02-27T02:42:21;527.60;;;500.20;;
2824;SDS011;1420;51.324;12.344;2023-02-27T02:45:08;533.43;;;506.12;;
2824;SDS011;1420;51.324;12.344;2023-02-27T02:47:57;505.28;;;479.60;;
2824;SDS011;1420;51.324;12.344;2023-02-27T02:50:34;515.85;;;489.10;;
2824;SDS011;1420;51.324;12.344;2023-02-27T02:53:02;440.32;;;417.72;;
2824;SDS011;1420;51.324;12.344;2023-02-27T02:58:24;444.85;;;422.17;;
2824;SDS011;1420;51.324;12.344;2023-02-27T03:00:56;433.75;;;411.72;;
2824;SDS011;1420;51.324;12.344;2023-02-27T03:03:25;433.52;;;411.48;;
2824;SDS011;1420;51.324;12.344;2023-02-27T03:05:54;439.13;;;416.10;;
2824;SDS011;1420;51.324;12.344;2023-02-27T03:08:20;499.45;;;474.20;;
2824;SDS011;1420;51.324;12.344;2023-02-27T03:10:48;487.77;;;462.53;;
2824;SDS011;1420;51.324;12.344;2023-02-27T03:13:18;461.87;;;438.00;;
2824;SDS011;1420;51.324;12.344;2023-02-27T03:15:44;468.02;;;443.97;;
2824;SDS011;1420;51.324;12.344;2023-02-27T03:18:14;451.15;;;428.10;;
2824;SDS011;1420;51.324;12.344;2023-02-27T03:20:41;449.33;;;426.48;;
2824;SDS011;1420;51.324;12.344;2023-02-27T03:23:09;451.38;;;428.28;;
2824;SDS011;1420;51.324;12.344;2023-02-27T03:25:35;436.73;;;414.48;;
2824;SDS011;1420;51.324;12.344;2023-02-27T03:28:05;397.82;;;377.47;;
2824;SDS011;1420;51.324;12.344;2023-02-27T03:30:36;427.43;;;405.72;;
2824;SDS011;1420;51.324;12.344;2023-02-27T03:33:06;465.05;;;441.62;;
2824;SDS011;1420;51.324;12.344;2023-02-27T03:35:36;448.08;;;425.38;;
2824;SDS011;1420;51.324;12.344;2023-02-27T03:38:16;430.00;;;407.95;;
2824;SDS011;1420;51.324;12.344;2023-02-27T03:41:04;498.35;;;472.73;;
2824;SDS011;1420;51.324;12.344;2023-02-27T03:46:34;450.08;;;426.58;;
2824;SDS011;1420;51.324;12.344;2023-02-27T03:49:02;453.82;;;430.53;;
2824;SDS011;1420;51.324;12.344;2023-02-27T03:51:30;431.22;;;408.90;;
2824;SDS011;1420;51.324;12.344;2023-02-27T03:53:59;428.28;;;406.17;;
2824;SDS011;1420;51.324;12.344;2023-02-27T03:56:37;432.32;;;409.90;;
2824;SDS011;1420;51.324;12.344;2023-02-27T03:59:01;609.17;;;571.88;;
2824;SDS011;1420;51.324;12.344;2023-02-27T04:01:28;481.95;;;457.03;;
2824;SDS011;1420;51.324;12.344;2023-02-27T04:03:58;461.12;;;437.32;;
2824;SDS011;1420;51.324;12.344;2023-02-27T04:06:23;429.02;;;407.03;;
2824;SDS011;1420;51.324;12.344;2023-02-27T04:09:05;414.17;;;393.07;;
2824;SDS011;1420;51.324;12.344;2023-02-27T04:11:43;432.48;;;410.25;;
2824;SDS011;1420;51.324;12.344;2023-02-27T04:14:12;472.72;;;448.42;;
2824;SDS011;1420;51.324;12.344;2023-02-27T04:16:45;429.43;;;407.77;;
2824;SDS011;1420;51.324;12.344;2023-02-27T04:19:34;427.03;;;405.48;;
2824;SDS011;1420;51.324;12.344;2023-02-27T04:24:51;406.38;;;385.87;;
2824;SDS011;1420;51.324;12.344;2023-02-27T04:27:52;404.87;;;384.53;;
2824;SDS011;1420;51.324;12.344;2023-02-27T04:32:42;407.12;;;386.52;;
2824;SDS011;1420;51.324;12.344;2023-02-27T04:35:27;391.90;;;372.22;;
2824;SDS011;1420;51.324;12.344;2023-02-27T04:40:44;376.83;;;357.58;;
2824;SDS011;1420;51.324;12.344;2023-02-27T04:43:12;383.08;;;363.78;;
2824;SDS011;1420;51.324;12.344;2023-02-27T04:45:41;356.23;;;337.88;;
2824;SDS011;1420;51.324;12.344;2023-02-27T04:48:10;341.05;;;323.85;;
2824;SDS011;1420;51.324;12.344;2023-02-27T04:50:36;325.10;;;308.30;;
2824;SDS011;1420;51.324;12.344;2023-02-27T04:53:08;357.47;;;338.20;;
2824;SDS011;1420;51.324;12.344;2023-02-27T04:55:38;336.77;;;319.53;;
2824;SDS011;1420;51.324;12.344;2023-02-27T04:58:08;332.88;;;315.72;;
2824;SDS011;1420;51.324;12.344;2023-02-27T05:00:33;325.25;;;308.47;;
2824;SDS011;1420;51.324;12.344;2023-02-27T05:03:04;291.72;;;276.18;;
2824;SDS011;1420;51.324;12.344;2023-02-27T05:05:32;306.27;;;290.32;;
2824;SDS011;1420;51.324;12.344;2023-02-27T05:08:07;312.90;;;296.65;;
2824;SDS011;1420;51.324;12.344;2023-02-27T05:10:36;320.78;;;304.30;;
2824;SDS011;1420;51.324;12.344;2023-02-27T05:13:09;326.87;;;310.23;;
2824;SDS011;1420;51.324;12.344;2023-02-27T05:15:39;341.78;;;324.33;;
2824;SDS011;1420;51.324;12.344;2023-02-27T05:18:05;396.80;;;376.65;;
2824;SDS011;1420;51.324;12.344;2023-02-27T05:20:34;353.22;;;335.40;;
2824;SDS011;1420;51.324;12.344;2023-02-27T05:23:11;390.52;;;370.82;;
2824;SDS011;1420;51.324;12.344;2023-02-27T05:25:42;387.02;;;367.80;;
2824;SDS011;1420;51.324;12.344;2023-02-27T05:28:09;581.70;;;549.23;;
2824;SDS011;1420;51.324;12.344;2023-02-27T05:30:37;420.25;;;398.70;;
2824;SDS011;1420;51.324;12.344;2023-02-27T05:33:12;406.02;;;385.02;;
2824;SDS011;1420;51.324;12.344;2023-02-27T05:35:44;432.95;;;411.10;;
2824;SDS011;1420;51.324;12.344;2023-02-27T05:38:20;446.72;;;424.02;;
2824;SDS011;1420;51.324;12.344;2023-02-27T05:40:51;417.80;;;396.85;;
2824;SDS011;1420;51.324;12.344;2023-02-27T05:43:24;425.67;;;403.73;;
2824;SDS011;1420;51.324;12.344;2023-02-27T05:45:55;424.17;;;402.28;;
2824;SDS011;1420;51.324;12.344;2023-02-27T05:48:26;452.13;;;429.43;;
2824;SDS011;1420;51.324;12.344;2023-02-27T05:50:52;435.25;;;413.18;;
2824;SDS011;1420;51.324;12.344;2023-02-27T05:53:20;430.62;;;408.80;;
2824;SDS011;1420;51.324;12.344;2023-02-27T05:55:49;425.62;;;403.88;;
2824;SDS011;1420;51.324;12.344;2023-02-27T05:58:16;406.48;;;386.02;;
2824;SDS011;1420;51.324;12.344;2023-02-27T06:00:44;412.60;;;391.73;;
2824;SDS011;1420;51.324;12.344;2023-02-27T06:03:10;421.82;;;400.28;;
2824;SDS011;1420;51.324;12.344;2023-02-27T06:05:37;412.50;;;391.03;;
2824;SDS011;1420;51.324;12.344;2023-02-27T06:08:04;402.70;;;382.40;;
2824;SDS011;1420;51.324;12.344;2023-02-27T06:10:32;430.40;;;408.33;;
2824;SDS011;1420;51.324;12.344;2023-02-27T06:12:59;413.08;;;392.37;;
2824;SDS011;1420;51.324;12.344;2023-02-27T06:15:26;401.47;;;380.78;;
2824;SDS011;1420;51.324;12.344;2023-02-27T06:17:54;411.38;;;390.62;;
2824;SDS011;1420;51.324;12.344;2023-02-27T06:20:21;444.85;;;422.43;;
2824;SDS011;1420;51.324;12.344;2023-02-27T06:22:48;410.23;;;389.17;;
2824;SDS011;1420;51.324;12.344;2023-02-27T06:25:15;425.73;;;404.02;;
2824;SDS011;1420;51.324;12.344;2023-02-27T06:27:42;380.32;;;361.07;;
2824;SDS011;1420;51.324;12.344;2023-02-27T06:30:10;397.40;;;377.78;;
2824;SDS011;1420;51.324;12.344;2023-02-27T06:32:37;417.87;;;396.47;;
2824;SDS011;1420;51.324;12.344;2023-02-27T06:35:05;377.05;;;357.52;;
2824;SDS011;1420;51.324;12.344;2023-02-27T06:37:32;359.37;;;340.67;;
2824;SDS011;1420;51.324;12.344;2023-02-27T06:40:00;383.72;;;364.10;;
2824;SDS011;1420;51.324;12.344;2023-02-27T06:42:27;334.43;;;316.97;;
2824;SDS011;1420;51.324;12.344;2023-02-27T06:44:54;344.97;;;327.25;;
2824;SDS011;1420;51.324;12.344;2023-02-27T06:47:22;326.58;;;309.10;;
2824;SDS011;1420;51.324;12.344;2023-02-27T06:49:49;321.60;;;305.18;;
2824;SDS011;1420;51.324;12.344;2023-02-27T06:52:16;360.17;;;341.57;;
2824;SDS011;1420;51.324;12.344;2023-02-27T06:54:44;322.07;;;305.25;;
2824;SDS011;1420;51.324;12.344;2023-02-27T06:57:11;382.87;;;363.52;;
2824;SDS011;1420;51.324;12.344;2023-02-27T06:59:38;337.52;;;320.03;;
2824;SDS011;1420;51.324;12.344;2023-02-27T07:02:05;423.47;;;402.23;;
2824;SDS011;1420;51.324;12.344;2023-02-27T07:04:33;405.30;;;384.48;;
2824;SDS011;1420;51.324;12.344;2023-02-27T07:07:01;384.13;;;363.87;;
2824;SDS011;1420;51.324;12.344;2023-02-27T07:09:28;495.77;;;470.83;;
2824;SDS011;1420;51.324;12.344;2023-02-27T07:11:55;460.12;;;436.18;;
2824;SDS011;1420;51.324;12.344;2023-02-27T07:14:22;378.03;;;358.63;;
2824;SDS011;1420;51.324;12.344;2023-02-27T07:16:50;348.07;;;330.05;;
2824;SDS011;1420;51.324;12.344;2023-02-27T07:19:20;322.30;;;305.10;;
2824;SDS011;1420;51.324;12.344;2023-02-27T07:21:46;403.85;;;383.08;;
2824;SDS011;1420;51.324;12.344;2023-02-27T07:24:14;305.12;;;288.40;;
2824;SDS011;1420;51.324;12.344;2023-02-27T07:26:41;277.48;;;262.02;;
2824;SDS011;1420;51.324;12.344;2023-02-27T07:29:09;317.03;;;299.60;;
2824;SDS011;1420;51.324;12.344;2023-02-27T07:31:36;202.20;;;189.60;;
2824;SDS011;1420;51.324;12.344;2023-02-27T07:34:03;146.87;;;136.02;;
2824;SDS011;1420;51.324;12.344;2023-02-27T07:36:30;147.45;;;136.90;;
2824;SDS011;1420;51.324;12.344;2023-02-27T07:38:58;166.55;;;155.50;;
2824;SDS011;1420;51.324;12.344;2023-02-27T07:41:25;136.88;;;126.70;;
2824;SDS011;1420;51.324;12.344;2023-02-27T07:43:53;130.25;;;120.85;;
2824;SDS011;1420;51.324;12.344;2023-02-27T07:46:21;103.05;;;94.68;;
2824;SDS011;1420;51.324;12.344;2023-02-27T07:48:48;61.50;;;54.90;;
2824;SDS011;1420;51.324;12.344;2023-02-27T07:51:15;51.30;;;31.45;;
2824;SDS011;1420;51.324;12.344;2023-02-27T07:53:42;55.47;;;30.90;;
2824;SDS011;1420;51.324;12.344;2023-02-27T07:56:10;42.25;;;16.73;;
2824;SDS011;1420;51.324;12.344;2023-02-27T07:58:37;42.88;;;15.67;;
2824;SDS011;1420;51.324;12.344;2023-02-27T08:01:04;43.20;;;18.43;;
2824;SDS011;1420;51.324;12.344;2023-02-27T08:03:31;53.58;;;29.20;;
2824;SDS011;1420;51.324;12.344;2023-02-27T08:05:59;111.80;;;103.10;;
2824;SDS011;1420;51.324;12.344;2023-02-27T08:08:26;52.98;;;34.53;;
2824;SDS011;1420;51.324;12.344;2023-02-27T08:10:53;54.48;;;31.47;;
2824;SDS011;1420;51.324;12.344;2023-02-27T08:13:20;45.70;;;17.42;;
2824;SDS011;1420;51.324;12.344;2023-02-27T08:15:48;49.12;;;18.97;;
2824;SDS011;1420;51.324;12.344;2023-02-27T08:18:15;50.63;;;25.47;;
2824;SDS011;1420;51.324;12.344;2023-02-27T08:20:42;51.17;;;28.67;;
2824;SDS011;1420;51.324;12.344;2023-02-27T08:23:10;50.42;;;32.68;;
2824;SDS011;1420;51.324;12.344;2023-02-27T08:25:38;56.48;;;46.55;;
2824;SDS011;1420;51.324;12.344;2023-02-27T08:28:05;61.87;;;47.30;;
2824;SDS011;1420;51.324;12.344;2023-02-27T08:30:32;65.65;;;57.98;;
2824;SDS011;1420;51.324;12.344;2023-02-27T08:33:00;143.00;;;131.97;;
2824;SDS011;1420;51.324;12.344;2023-02-27T08:35:28;70.75;;;62.93;;
2824;SDS011;1420;51.324;12.344;2023-02-27T08:37:55;59.23;;;43.28;;
2824;SDS011;1420;51.324;12.344;2023-02-27T08:40:22;62.95;;;52.78;;
2824;SDS011;1420;51.324;12.344;2023-02-27T08:42:49;104.13;;;95.37;;
2824;SDS011;1420;51.324;12.344;2023-02-27T08:45:16;117.53;;;108.35;;
2824;SDS011;1420;51.324;12.344;2023-02-27T08:47:44;127.50;;;118.02;;
2824;SDS011;1420;51.324;12.344;2023-02-27T08:50:12;121.05;;;111.65;;
2824;SDS011;1420;51.324;12.344;2023-02-27T08:52:39;205.02;;;192.48;;
2824;SDS011;1420;51.324;12.344;2023-02-27T08:55:07;101.73;;;93.32;;
2824;SDS011;1420;51.324;12.344;2023-02-27T08:57:34;116.75;;;107.50;;
2824;SDS011;1420;51.324;12.344;2023-02-27T09:00:01;214.33;;;201.02;;
2824;SDS011;1420;51.324;12.344;2023-02-27T09:02:29;189.73;;;177.50;;
2824;SDS011;1420;51.324;12.344;2023-02-27T09:04:56;166.08;;;155.37;;
2824;SDS011;1420;51.324;12.344;2023-02-27T09:07:23;163.07;;;152.55;;
2824;SDS011;1420;51.324;12.344;2023-02-27T09:09:51;112.98;;;104.43;;
2824;SDS011;1420;51.324;12.344;2023-02-27T09:12:19;117.55;;;108.12;;
2824;SDS011;1420;51.324;12.344;2023-02-27T09:14:46;173.95;;;162.43;;
2824;SDS011;1420;51.324;12.344;2023-02-27T09:17:14;327.23;;;306.35;;
2824;SDS011;1420;51.324;12.344;2023-02-27T09:19:41;690.05;;;632.03;;
2824;SDS011;1420;51.324;12.344;2023-02-27T09:22:08;272.38;;;257.58;;
2824;SDS011;1420;51.324;12.344;2023-02-27T09:24:35;92.13;;;84.27;;
2824;SDS011;1420;51.324;12.344;2023-02-27T09:27:02;72.90;;;65.53;;
2824;SDS011;1420;51.324;12.344;2023-02-27T09:29:30;57.40;;;46.55;;
2824;SDS011;1420;51.324;12.344;2023-02-27T09:31:58;114.98;;;105.68;;
2824;SDS011;1420;51.324;12.344;2023-02-27T09:34:26;67.43;;;60.45;;
2824;SDS011;1420;51.324;12.344;2023-02-27T09:36:56;81.80;;;73.88;;
2824;SDS011;1420;51.324;12.344;2023-02-27T09:39:25;125.07;;;115.60;;
2824;SDS011;1420;51.324;12.344;2023-02-27T09:41:58;49.67;;;31.43;;
2824;SDS011;1420;51.324;12.344;2023-02-27T09:44:40;48.27;;;22.52;;
2824;SDS011;1420;51.324;12.344;2023-02-27T09:47:10;50.90;;;32.30;;
2824;SDS011;1420;51.324;12.344;2023-02-27T09:49:40;51.07;;;31.40;;
2824;SDS011;1420;51.324;12.344;2023-02-27T09:52:03;48.63;;;29.17;;
2824;SDS011;1420;51.324;12.344;2023-02-27T09:54:33;48.15;;;23.75;;
2824;SDS011;1420;51.324;12.344;2023-02-27T09:57:02;241.67;;;225.67;;
2824;SDS011;1420;51.324;12.344;2023-02-27T09:59:33;44.32;;;16.63;;
2824;SDS011;1420;51.324;12.344;2023-02-27T10:02:07;279.75;;;260.87;;
2824;SDS011;1420;51.324;12.344;2023-02-27T10:04:49;91.38;;;83.50;;
2824;SDS011;1420;51.324;12.344;2023-02-27T10:09:56;47.57;;;23.87;;
2824;SDS011;1420;51.324;12.344;2023-02-27T10:12:39;51.53;;;31.95;;
2824;SDS011;1420;51.324;12.344;2023-02-27T10:15:13;53.15;;;28.80;;
2824;SDS011;1420;51.324;12.344;2023-02-27T10:17:39;56.92;;;45.07;;
2824;SDS011;1420;51.324;12.344;2023-02-27T10:20:06;45.10;;;17.57;;
2824;SDS011;1420;51.324;12.344;2023-02-27T10:22:35;76.18;;;64.82;;
2824;SDS011;1420;51.324;12.344;2023-02-27T10:25:05;58.55;;;49.07;;
2824;SDS011;1420;51.324;12.344;2023-02-27T10:27:31;43.40;;;18.02;;
2824;SDS011;1420;51.324;12.344;2023-02-27T10:30:19;41.65;;;16.15;;
2824;SDS011;1420;51.324;12.344;2023-02-27T10:32:29;105.38;;;97.33;;
2824;SDS011;1420;51.324;12.344;2023-02-27T10:34:57;66.08;;;58.03;;
2824;SDS011;1420;51.324;12.344;2023-02-27T10:37:24;49.88;;;27.63;;
2824;SDS011;1420;51.324;12.344;2023-02-27T10:39:54;87.53;;;79.65;;
2824;SDS011;1420;51.324;12.344;2023-02-27T10:42:20;53.77;;;39.32;;
2824;SDS011;1420;51.324;12.344;2023-02-27T10:44:48;341.82;;;320.55;;
2824;SDS011;1420;51.324;12.344;2023-02-27T10:47:15;63.47;;;54.10;;
2824;SDS011;1420;51.324;12.344;2023-02-27T10:49:43;65.30;;;53.62;;
2824;SDS011;1420;51.324;12.344;2023-02-27T10:52:11;66.45;;;59.57;;
2824;SDS011;1420;51.324;12.344;2023-02-27T10:54:38;60.15;;;50.57;;
2824;SDS011;1420;51.324;12.344;2023-02-27T10:57:16;82.25;;;74.33;;
2824;SDS011;1420;51.324;12.344;2023-02-27T10:59:49;62.65;;;54.98;;
2824;SDS011;1420;51.324;12.344;2023-02-27T11:02:21;53.67;;;35.20;;
2824;SDS011;1420;51.324;12.344;2023-02-27T11:04:48;65.03;;;58.35;;
2824;SDS011;1420;51.324;12.344;2023-02-27T11:07:15;88.68;;;80.72;;
2824;SDS011;1420;51.324;12.344;2023-02-27T11:09:43;171.18;;;158.70;;
2824;SDS011;1420;51.324;12.344;2023-02-27T11:12:18;74.17;;;66.75;;
2824;SDS011;1420;51.324;12.344;2023-02-27T11:14:48;77.83;;;70.25;;
2824;SDS011;1420;51.324;12.344;2023-02-27T11:17:24;66.55;;;59.37;;
2824;SDS011;1420;51.324;12.344;2023-02-27T11:19:51;114.08;;;105.27;;
2824;SDS011;1420;51.324;12.344;2023-02-27T11:22:19;76.68;;;69.27;;
2824;SDS011;1420;51.324;12.344;2023-02-27T11:24:46;62.95;;;56.18;;
2824;SDS011;1420;51.324;12.344;2023-02-27T11:27:18;59.57;;;45.53;;
2824;SDS011;1420;51.324;12.344;2023-02-27T11:29:54;59.20;;;45.52;;
2824;SDS011;1420;51.324;12.344;2023-02-27T11:32:29;54.50;;;35.58;;
2824;SDS011;1420;51.324;12.344;2023-02-27T11:34:53;96.83;;;88.32;;
2824;SDS011;1420;51.324;12.344;2023-02-27T11:37:29;58.60;;;42.65;;
2824;SDS011;1420;51.324;12.344;2023-02-27T11:40:13;60.18;;;50.25;;
2824;SDS011;1420;51.324;12.344;2023-02-27T11:42:42;109.98;;;101.22;;
2824;SDS011;1420;51.324;12.344;2023-02-27T11:45:25;59.45;;;48.40;;
2824;SDS011;1420;51.324;12.344;2023-02-27T11:47:51;68.23;;;60.77;;
2824;SDS011;1420;51.324;12.344;2023-02-27T11:50:30;149.22;;;138.75;;
2824;SDS011;1420;51.324;12.344;2023-02-27T11:53:02;74.62;;;67.30;;
2824;SDS011;1420;51.324;12.344;2023-02-27T11:55:26;137.13;;;127.35;;
2824;SDS011;1420;51.324;12.344;2023-02-27T11:57:57;87.93;;;80.12;;
2824;SDS011;1420;51.324;12.344;2023-02-27T12:00:23;72.45;;;65.05;;
2824;SDS011;1420;51.324;12.344;2023-02-27T12:02:55;86.98;;;79.12;;
2824;SDS011;1420;51.324;12.344;2023-02-27T12:08:10;120.00;;;110.75;;
2824;SDS011;1420;51.324;12.344;2023-02-27T12:10:40;164.48;;;153.47;;
2824;SDS011;1420;51.324;12.344;2023-02-27T12:13:09;192.27;;;179.85;;
2824;SDS011;1420;51.324;12.344;2023-02-27T12:15:36;79.07;;;71.50;;
2824;SDS011;1420;51.324;12.344;2023-02-27T12:18:12;79.10;;;71.60;;
2824;SDS011;1420;51.324;12.344;2023-02-27T12:23:22;58.75;;;48.17;;
2824;SDS011;1420;51.324;12.344;2023-02-27T12:25:51;144.68;;;134.07;;
2824;SDS011;1420;51.324;12.344;2023-02-27T12:28:20;179.75;;;168.30;;
2824;SDS011;1420;51.324;12.344;2023-02-27T12:33:37;121.25;;;111.83;;
2824;SDS011;1420;51.324;12.344;2023-02-27T12:36:02;310.03;;;293.90;;
2824;SDS011;1420;51.324;12.344;2023-02-27T12:38:29;214.45;;;200.95;;
2824;SDS011;1420;51.324;12.344;2023-02-27T12:41:00;144.62;;;134.62;;
2824;SDS011;1420;51.324;12.344;2023-02-27T12:43:37;149.22;;;138.90;;
2824;SDS011;1420;51.324;12.344;2023-02-27T12:46:14;272.03;;;256.08;;
2824;SDS011;1420;51.324;12.344;2023-02-27T12:48:51;199.42;;;187.32;;
2824;SDS011;1420;51.324;12.344;2023-02-27T12:51:25;249.28;;;234.50;;
2824;SDS011;1420;51.324;12.344;2023-02-27T12:54:09;132.02;;;122.60;;
2824;SDS011;1420;51.324;12.344;2023-02-27T12:56:45;218.02;;;203.83;;
2824;SDS011;1420;51.324;12.344;2023-02-27T13:01:58;318.63;;;297.05;;
2824;SDS011;1420;51.324;12.344;2023-02-27T13:04:38;121.20;;;111.77;;
2824;SDS011;1420;51.324;12.344;2023-02-27T13:07:07;83.28;;;75.60;;
2824;SDS011;1420;51.324;12.344;2023-02-27T13:09:37;118.13;;;108.77;;
2824;SDS011;1420;51.324;12.344;2023-02-27T13:12:50;376.77;;;355.85;;
2824;SDS011;1420;51.324;12.344;2023-02-27T13:15:02;69.45;;;62.17;;
2824;SDS011;1420;51.324;12.344;2023-02-27T13:17:45;224.05;;;210.15;;
2824;SDS011;1420;51.324;12.344;2023-02-27T13:20:22;91.50;;;83.48;;
2824;SDS011;1420;51.324;12.344;2023-02-27T13:23:21;172.70;;;160.58;;
2824;SDS011;1420;51.324;12.344;2023-02-27T13:25:45;103.82;;;94.90;;
2824;SDS011;1420;51.324;12.344;2023-02-27T13:28:12;108.42;;;99.77;;
2824;SDS011;1420;51.324;12.344;2023-02-27T13:30:40;116.12;;;107.25;;
2824;SDS011;1420;51.324;12.344;2023-02-27T13:35:47;158.90;;;147.38;;
2824;SDS011;1420;51.324;12.344;2023-02-27T13:40:55;156.45;;;146.15;;
2824;SDS011;1420;51.324;12.344;2023-02-27T13:43:27;152.70;;;142.50;;
2824;SDS011;1420;51.324;12.344;2023-02-27T13:45:54;272.77;;;257.52;;
2824;SDS011;1420;51.324;12.344;2023-02-27T13:51:01;168.92;;;157.47;;
2824;SDS011;1420;51.324;12.344;2023-02-27T13:53:29;88.33;;;80.30;;
2824;SDS011;1420;51.324;12.344;2023-02-27T13:56:16;94.72;;;86.07;;
2824;SDS011;1420;51.324;12.344;2023-02-27T13:58:25;736.35;;;685.42;;
2824;SDS011;1420;51.324;12.344;2023-02-27T14:00:56;205.08;;;192.92;;
2824;SDS011;1420;51.324;12.344;2023-02-27T14:03:24;242.60;;;229.20;;
2824;SDS011;1420;51.324;12.344;2023-02-27T14:05:50;242.12;;;228.63;;
2824;SDS011;1420;51.324;12.344;2023-02-27T14:08:24;255.35;;;241.47;;
2824;SDS011;1420;51.324;12.344;2023-02-27T14:10:55;340.03;;;323.03;;
2824;SDS011;1420;51.324;12.344;2023-02-27T14:19:26;289.42;;;274.13;;
2824;SDS011;1420;51.324;12.344;2023-02-27T14:21:57;214.77;;;202.13;;
2824;SDS011;1420;51.324;12.344;2023-02-27T14:24:27;207.90;;;195.17;;
2824;SDS011;1420;51.324;12.344;2023-02-27T14:26:54;167.35;;;156.50;;
2824;SDS011;1420;51.324;12.344;2023-02-27T14:29:22;208.68;;;196.38;;
2824;SDS011;1420;51.324;12.344;2023-02-27T14:31:49;292.72;;;276.93;;
2824;SDS011;1420;51.324;12.344;2023-02-27T14:34:17;294.38;;;278.97;;
2824;SDS011;1420;51.324;12.344;2023-02-27T14:36:46;402.95;;;381.53;;
2824;SDS011;1420;51.324;12.344;2023-02-27T14:39:18;244.20;;;230.22;;
2824;SDS011;1420;51.324;12.344;2023-02-27T14:41:48;254.37;;;240.35;;
2824;SDS011;1420;51.324;12.344;2023-02-27T14:44:36;225.78;;;212.85;;
2824;SDS011;1420;51.324;12.344;2023-02-27T14:47:03;192.93;;;181.15;;
2824;SDS011;1420;51.324;12.344;2023-02-27T14:49:31;557.18;;;518.58;;
2824;SDS011;1420;51.324;12.344;2023-02-27T14:52:30;316.07;;;291.27;;
2824;SDS011;1420;51.324;12.344;2023-02-27T14:54:46;842.68;;;759.17;;
2824;SDS011;1420;51.324;12.344;2023-02-27T14:57:18;413.57;;;373.83;;
2824;SDS011;1420;51.324;12.344;2023-02-27T14:59:47;295.25;;;278.67;;
2824;SDS011;1420;51.324;12.344;2023-02-27T15:02:29;686.22;;;617.30;;
2824;SDS011;1420;51.324;12.344;2023-02-27T15:07:43;165.45;;;154.50;;
2824;SDS011;1420;51.324;12.344;2023-02-27T15:10:15;124.02;;;114.98;;
2824;SDS011;1420;51.324;12.344;2023-02-27T15:12:37;100.32;;;91.73;;
2824;SDS011;1420;51.324;12.344;2023-02-27T15:15:04;123.20;;;114.30;;
2824;SDS011;1420;51.324;12.344;2023-02-27T15:17:36;96.97;;;89.00;;
2824;SDS011;1420;51.324;12.344;2023-02-27T15:20:14;82.37;;;74.95;;
2824;SDS011;1420;51.324;12.344;2023-02-27T15:22:36;61.95;;;55.27;;
2824;SDS011;1420;51.324;12.344;2023-02-27T15:24:57;60.28;;;53.10;;